Bradenton, FL (34205)

9:08 PM EST on December 27, 2014 (GMT -0500)
Cleveland's in Sandpointe | Change Station
CLOSE
Current Station
Personal Weather Station
Location: Bradenton, FL
Elevation: 28 ft
Nearby Weather Stations

Elev 28 ft 27.48 °N, 82.60 °W | Updated 4 seconds ago

Clear
Clear
69.8 °F
Feels Like 69.8 °F
N
0.0
Wind Variable Wind from South
Gusts 0.0 mph

Today
High -- | Low -- °F
--% Chance of Precip.
Yesterday
High -- | Low -- °F
Precip. -- in
7:19 AM 5:44 PM
Waxing Crescent, 42% visible
Pressure 30.17 in
Visibility 10.0 miles
Clouds Clear
Dew Point 66 °F
Humidity 88%
Rainfall 0.00 in
Snow Depth Not available.
UV 0 out of 12
Pollen 6.20 out of 12
Air Quality Not available.
Flu Activity Not available.
METAR KSRQ 280153Z AUTO 00000KT 10SM CLR 19/19 A3017 RMK AO2 SLP216 T01940189

More Conditions Fewer Conditions

Pressure 30.17 in
Visibility 10.0 miles
Clouds Clear
Dew Point 66 °F
Humidity 88%
Rainfall 0.00 in
Snow Depth Not available.
UV 0 out of 12
Pollen 6.20 out of 12
Air Quality Not available.
Flu Activity Not available.
METAR KSRQ 280153Z AUTO 00000KT 10SM CLR 19/19 A3017 RMK AO2 SLP216 T01940189

More Conditions Fewer Conditions

10-Day Weather Forecast

Almanac

Astronomy

Dec. 27, 2014 Rise Set
Actual Time
Civil Twilight
Nautical Twilight
Astronomical Twilight
Moon
Length of Visible Light
Length of Day
Tomorrow will be .
, % of the Moon is Illuminated

Today's Extremes

State Highs State Lows

Community

WunderPhotos

Upload Photos

1,781,137 photos uploaded!

WunderBlogs® & News

Nearby

Air Quality

  Air Quality AQ Index Pollutant
Not available.

Snow Depth

Station Depth Elevation

Earthquake Activity

City Distance Mag. Time & Date
Minimum magnitude displayed is 2.5.

Coastal Water Temperatures

Place Temperature

Nearby Weather Stations